createdAt,value
2023-02-22T00:01:23.414Z,52.20
2023-02-22T00:03:53.646Z,52.10
2023-02-22T00:06:26.129Z,52.10
2023-02-22T00:08:55.837Z,52.10
2023-02-22T00:11:25.277Z,52.10
2023-02-22T00:13:57.532Z,52.10
2023-02-22T00:16:27.567Z,52.10
2023-02-22T00:18:56.900Z,52.00
2023-02-22T00:21:26.135Z,52.00
2023-02-22T00:23:55.317Z,52.70
2023-02-22T00:26:24.792Z,52.00
2023-02-22T00:28:56.530Z,52.10
2023-02-22T00:31:26.684Z,52.10
2023-02-22T00:33:55.960Z,52.10
2023-02-22T00:36:25.299Z,52.00
2023-02-22T00:38:55.888Z,52.10
2023-02-22T00:41:25.087Z,52.10
2023-02-22T00:43:54.281Z,52.10
2023-02-22T00:46:24.968Z,52.10
2023-02-22T00:48:55.576Z,52.00
2023-02-22T00:51:27.400Z,52.00
2023-02-22T00:53:56.657Z,52.00
2023-02-22T00:56:26.121Z,52.00
2023-02-22T00:58:55.393Z,52.00
2023-02-22T01:01:26.217Z,52.10
2023-02-22T01:03:57.413Z,52.10
2023-02-22T01:06:26.735Z,52.10
2023-02-22T01:08:55.982Z,52.00
2023-02-22T01:11:26.586Z,52.00
2023-02-22T01:13:56.711Z,52.00
2023-02-22T01:16:27.745Z,51.90
2023-02-22T01:18:57.227Z,52.00
2023-02-22T01:21:26.454Z,51.90
2023-02-22T01:23:57.354Z,51.90
2023-02-22T01:26:26.770Z,51.90
2023-02-22T01:28:55.947Z,51.90
2023-02-22T01:31:26.594Z,51.90
2023-02-22T01:33:55.804Z,51.90
2023-02-22T01:36:25.249Z,51.90
2023-02-22T01:38:54.470Z,51.90
2023-02-22T01:41:23.883Z,51.90
2023-02-22T01:43:53.087Z,51.90
2023-02-22T01:46:24.353Z,51.90
2023-02-22T01:49:01.323Z,51.90
2023-02-22T01:51:37.670Z,51.90
2023-02-22T01:54:12.218Z,51.90
2023-02-22T01:56:50.589Z,51.90
2023-02-22T01:59:23.564Z,51.90
2023-02-22T02:01:53.009Z,51.90
2023-02-22T02:04:25.952Z,51.90
2023-02-22T02:07:01.514Z,51.90
2023-02-22T02:09:36.750Z,52.00
2023-02-22T02:12:06.768Z,51.90
2023-02-22T02:14:40.627Z,52.00
2023-02-22T02:17:11.981Z,51.90
2023-02-22T02:19:49.405Z,51.90
2023-02-22T02:22:32.506Z,51.90
2023-02-22T02:25:40.322Z,51.90
2023-02-22T02:28:43.561Z,52.00
2023-02-22T02:31:32.021Z,52.00
2023-02-22T02:34:06.760Z,52.00
2023-02-22T02:36:45.336Z,52.00
2023-02-22T02:39:24.731Z,52.00
2023-02-22T02:41:54.449Z,52.00
2023-02-22T02:44:30.852Z,52.00
2023-02-22T02:47:08.253Z,52.00
2023-02-22T02:49:55.872Z,52.00
2023-02-22T02:52:28.202Z,52.00
2023-02-22T02:54:58.165Z,52.00
2023-02-22T02:57:28.050Z,51.90
2023-02-22T02:59:57.346Z,51.90
2023-02-22T03:02:46.474Z,51.90
2023-02-22T03:05:41.252Z,51.90
2023-02-22T03:08:19.051Z,52.00
2023-02-22T03:10:58.338Z,52.00
2023-02-22T03:13:32.596Z,52.00
2023-02-22T03:16:17.327Z,52.00
2023-02-22T03:18:52.657Z,52.00
2023-02-22T03:21:29.707Z,52.10
2023-02-22T03:24:07.843Z,52.10
2023-02-22T03:26:42.943Z,52.00
2023-02-22T03:29:16.307Z,52.00
2023-02-22T03:31:53.043Z,52.00
2023-02-22T03:34:30.915Z,52.00
2023-02-22T03:37:06.706Z,52.00
2023-02-22T03:39:38.067Z,52.00
2023-02-22T03:42:11.906Z,52.00
2023-02-22T03:44:42.809Z,52.00
2023-02-22T03:47:15.881Z,52.00
2023-02-22T03:49:51.262Z,52.00
2023-02-22T03:52:23.653Z,52.10
2023-02-22T03:54:53.823Z,52.10
2023-02-22T03:57:29.949Z,52.10
2023-02-22T04:00:09.844Z,52.10
2023-02-22T04:02:46.484Z,52.10
2023-02-22T04:05:20.830Z,52.10
2023-02-22T04:07:52.308Z,52.10
2023-02-22T04:10:22.571Z,52.10
2023-02-22T04:12:52.344Z,52.20
2023-02-22T04:15:24.102Z,52.20
2023-02-22T04:17:57.634Z,52.20
2023-02-22T04:20:26.934Z,52.20
2023-02-22T04:23:08.833Z,52.20
2023-02-22T04:25:41.309Z,52.20
2023-02-22T04:28:13.881Z,52.20
2023-02-22T04:30:47.858Z,52.20
2023-02-22T04:33:19.618Z,52.20
2023-02-22T04:35:49.161Z,52.20
2023-02-22T04:38:19.898Z,52.20
2023-02-22T04:40:50.377Z,52.20
2023-02-22T04:43:19.712Z,52.20
2023-02-22T04:45:49.830Z,52.20
2023-02-22T04:48:19.200Z,52.20
2023-02-22T04:50:48.887Z,52.20
2023-02-22T04:53:20.064Z,52.20
2023-02-22T04:55:49.390Z,52.20
2023-02-22T04:58:19.526Z,52.20
2023-02-22T05:00:50.537Z,52.20
2023-02-22T05:03:19.924Z,52.20
2023-02-22T05:05:49.187Z,52.20
2023-02-22T05:08:19.903Z,52.40
2023-02-22T05:10:49.489Z,52.30
2023-02-22T05:13:18.691Z,52.30
2023-02-22T05:15:49.161Z,52.20
2023-02-22T05:18:18.628Z,52.20
2023-02-22T05:20:47.792Z,52.20
2023-02-22T05:23:17.107Z,52.20
2023-02-22T05:25:47.822Z,52.20
2023-02-22T05:28:17.906Z,52.20
2023-02-22T05:30:47.204Z,52.20
2023-02-22T05:33:16.566Z,52.20
2023-02-22T05:35:46.476Z,52.90
2023-02-22T05:38:16.348Z,52.30
2023-02-22T05:40:47.189Z,52.30
2023-02-22T05:43:17.066Z,52.30
2023-02-22T05:45:46.338Z,52.90
2023-02-22T05:48:15.556Z,52.20
2023-02-22T05:50:44.794Z,52.30
2023-02-22T05:53:14.151Z,52.30
2023-02-22T05:55:45.008Z,52.30
2023-02-22T05:58:17.338Z,52.30
2023-02-22T06:00:46.652Z,52.40
2023-02-22T06:03:16.136Z,52.30
2023-02-22T06:05:45.756Z,52.30
2023-02-22T06:08:15.018Z,52.20
2023-02-22T06:10:44.421Z,51.90
2023-02-22T06:13:13.654Z,51.90
2023-02-22T06:15:44.515Z,52.00
2023-02-22T06:18:13.747Z,52.20
2023-02-22T06:20:42.955Z,52.50
2023-02-22T06:23:12.286Z,52.20
2023-02-22T06:25:42.027Z,52.10
2023-02-22T06:28:11.353Z,52.30
2023-02-22T06:30:43.958Z,52.10
2023-02-22T06:33:13.605Z,52.00
2023-02-22T06:35:42.871Z,52.20
2023-02-22T06:38:12.279Z,52.10
2023-02-22T06:40:41.750Z,52.00
2023-02-22T06:43:11.293Z,52.00
2023-02-22T06:45:40.617Z,52.00
2023-02-22T06:48:11.263Z,52.00
2023-02-22T06:50:40.581Z,51.90
2023-02-22T06:53:09.985Z,51.90
2023-02-22T06:55:39.307Z,52.00
2023-02-22T06:58:08.520Z,52.00
2023-02-22T07:00:37.757Z,51.90
2023-02-22T07:03:07.113Z,52.20
2023-02-22T07:05:38.459Z,52.40
2023-02-22T07:08:09.236Z,52.60
2023-02-22T07:10:39.790Z,52.50
2023-02-22T07:13:09.974Z,52.60
2023-02-22T07:15:39.676Z,52.50
2023-02-22T07:18:09.362Z,52.70
2023-02-22T07:20:40.189Z,52.60
2023-02-22T07:23:09.745Z,52.50
2023-02-22T07:25:39.145Z,52.50
2023-02-22T07:28:08.395Z,52.50
2023-02-22T07:30:37.723Z,52.50
2023-02-22T07:33:08.623Z,52.40
2023-02-22T07:35:41.097Z,52.30
2023-02-22T07:38:10.532Z,52.30
2023-02-22T07:40:40.559Z,52.20
2023-02-22T07:43:16.921Z,52.10
2023-02-22T07:45:47.853Z,52.10
2023-02-22T07:48:18.234Z,52.20
2023-02-22T07:50:49.512Z,52.10
2023-02-22T07:53:21.200Z,52.00
2023-02-22T07:55:52.063Z,51.90
2023-02-22T07:58:22.983Z,51.90
2023-02-22T08:00:52.406Z,52.00
2023-02-22T08:03:23.582Z,51.80
2023-02-22T08:05:56.336Z,51.90
2023-02-22T08:08:26.081Z,51.80
2023-02-22T08:10:55.497Z,51.80
2023-02-22T08:13:25.335Z,51.70
2023-02-22T08:15:55.411Z,51.70
2023-02-22T08:18:26.382Z,52.20
2023-02-22T08:20:57.400Z,51.60
2023-02-22T08:23:28.048Z,51.60
2023-02-22T08:25:57.981Z,51.40
2023-02-22T08:28:27.243Z,51.30
2023-02-22T08:30:56.588Z,51.40
2023-02-22T08:33:26.161Z,51.70
2023-02-22T08:35:57.111Z,51.80
2023-02-22T08:38:28.887Z,52.00
2023-02-22T08:40:58.783Z,52.00
2023-02-22T08:43:29.894Z,52.00
2023-02-22T08:45:59.399Z,52.10
2023-02-22T08:48:28.644Z,52.20
2023-02-22T08:50:59.554Z,52.30
2023-02-22T08:53:28.993Z,52.30
2023-02-22T08:55:58.440Z,52.30
2023-02-22T08:58:27.849Z,52.30
2023-02-22T09:00:57.296Z,52.40
2023-02-22T09:03:26.649Z,52.30
2023-02-22T09:05:56.577Z,52.20
2023-02-22T09:08:27.373Z,52.50
2023-02-22T09:10:56.871Z,52.20
2023-02-22T09:13:26.245Z,51.80
2023-02-22T09:15:55.605Z,51.60
2023-02-22T09:18:26.962Z,51.30
2023-02-22T09:21:00.311Z,51.00
2023-02-22T09:23:30.980Z,50.50
2023-02-22T09:26:00.990Z,50.30
2023-02-22T09:28:30.281Z,50.10
2023-02-22T09:30:59.532Z,49.90
2023-02-22T09:33:28.863Z,49.80
2023-02-22T09:36:00.949Z,49.70
2023-02-22T09:38:32.799Z,49.90
2023-02-22T09:41:12.575Z,50.30
2023-02-22T09:43:49.761Z,50.50
2023-02-22T09:46:27.255Z,50.60
2023-02-22T09:49:03.192Z,50.60
2023-02-22T09:51:39.179Z,50.30
2023-02-22T09:54:22.794Z,50.20
2023-02-22T09:56:54.836Z,49.80
2023-02-22T09:59:28.760Z,49.60
2023-02-22T10:02:06.930Z,49.50
2023-02-22T10:04:44.556Z,49.40
2023-02-22T10:07:20.071Z,49.90
2023-02-22T10:09:51.808Z,50.10
2023-02-22T10:12:30.436Z,50.00
2023-02-22T10:15:37.304Z,49.60
2023-02-22T10:18:34.547Z,49.30
2023-02-22T10:21:13.275Z,49.10
2023-02-22T10:23:50.653Z,49.10
2023-02-22T10:26:25.264Z,49.00
2023-02-22T10:28:59.833Z,48.90
2023-02-22T10:31:33.962Z,48.80
2023-02-22T10:34:06.271Z,48.90
2023-02-22T10:36:39.291Z,49.00
2023-02-22T10:39:17.793Z,49.00
2023-02-22T10:41:53.147Z,49.40
2023-02-22T10:44:22.530Z,49.50
2023-02-22T10:46:53.481Z,49.50
2023-02-22T10:49:25.690Z,49.40
2023-02-22T10:52:02.044Z,49.10
2023-02-22T10:54:35.052Z,48.90
2023-02-22T10:57:05.974Z,48.70
2023-02-22T10:59:37.117Z,48.50
2023-02-22T11:02:19.581Z,48.40
2023-02-22T11:04:50.966Z,48.20
2023-02-22T11:07:24.237Z,48.30
2023-02-22T11:09:55.370Z,48.10
2023-02-22T11:12:32.601Z,48.00
2023-02-22T11:15:28.263Z,48.00
2023-02-22T11:18:01.583Z,48.00
2023-02-22T11:20:34.999Z,48.30
2023-02-22T11:23:08.362Z,48.60
2023-02-22T11:25:40.082Z,48.70
2023-02-22T11:28:15.090Z,48.50
2023-02-22T11:30:48.187Z,48.40
2023-02-22T11:33:24.023Z,48.30
2023-02-22T11:35:55.562Z,48.20
2023-02-22T11:38:26.754Z,48.10
2023-02-22T11:41:16.004Z,48.00
2023-02-22T11:43:48.796Z,47.90
2023-02-22T11:46:20.081Z,47.90
2023-02-22T11:48:59.637Z,47.80
2023-02-22T11:51:41.812Z,47.60
2023-02-22T11:54:41.159Z,47.60
2023-02-22T11:57:23.333Z,48.10
2023-02-22T12:00:16.494Z,48.80
2023-02-22T12:03:04.020Z,48.80
2023-02-22T12:06:00.718Z,48.40
2023-02-22T12:08:43.804Z,48.30
2023-02-22T12:11:19.560Z,48.10
2023-02-22T12:14:05.830Z,48.00
2023-02-22T12:16:47.418Z,48.00
2023-02-22T12:19:28.047Z,48.00
2023-02-22T12:22:03.217Z,48.50
2023-02-22T12:24:38.292Z,48.20
2023-02-22T12:27:11.559Z,48.30
2023-02-22T12:29:47.305Z,48.10
2023-02-22T12:32:26.291Z,48.00
2023-02-22T12:34:59.877Z,48.00
2023-02-22T12:37:32.823Z,47.80
2023-02-22T12:40:08.739Z,47.80
2023-02-22T12:42:48.768Z,47.80
2023-02-22T12:45:27.549Z,47.80
2023-02-22T12:48:07.535Z,47.70
2023-02-22T12:50:38.371Z,47.90
2023-02-22T12:53:15.957Z,48.20
2023-02-22T12:55:51.991Z,48.30
2023-02-22T12:58:27.130Z,48.20
2023-02-22T13:01:05.779Z,48.10
2023-02-22T13:03:40.432Z,48.00
2023-02-22T13:06:29.445Z,47.90
2023-02-22T13:09:15.640Z,47.90
2023-02-22T13:11:53.348Z,48.10
2023-02-22T13:14:38.966Z,48.50
2023-02-22T13:17:15.004Z,48.90
2023-02-22T13:19:54.044Z,48.90
2023-02-22T13:22:31.094Z,49.20
2023-02-22T13:25:06.096Z,50.10
2023-02-22T13:27:42.164Z,50.40
2023-02-22T13:30:21.317Z,50.50
2023-02-22T13:33:14.676Z,50.50
2023-02-22T13:41:56.837Z,50.70
2023-02-22T13:44:59.995Z,50.70
2023-02-22T13:48:10.878Z,50.80
2023-02-22T13:51:04.749Z,50.80
2023-02-22T13:53:44.066Z,50.90
2023-02-22T13:56:16.314Z,51.00
2023-02-22T13:58:51.252Z,50.90
2023-02-22T14:01:45.868Z,50.90
2023-02-22T14:04:24.671Z,51.00
2023-02-22T14:06:56.241Z,51.00
2023-02-22T14:09:45.770Z,51.10
2023-02-22T14:12:48.012Z,51.40
2023-02-22T14:15:30.866Z,51.70
2023-02-22T14:18:02.300Z,51.80
2023-02-22T14:20:35.263Z,51.90
2023-02-22T14:23:35.459Z,52.00
2023-02-22T14:26:17.810Z,52.10
2023-02-22T14:28:54.625Z,52.20
2023-02-22T14:31:36.060Z,52.20
2023-02-22T14:34:10.613Z,52.20
2023-02-22T14:36:53.502Z,52.10
2023-02-22T14:39:32.379Z,52.10
2023-02-22T14:42:07.270Z,52.10
2023-02-22T14:44:41.821Z,52.00
2023-02-22T14:47:20.259Z,52.00
2023-02-22T14:49:52.813Z,52.00
2023-02-22T14:52:26.584Z,52.20
2023-02-22T14:55:07.618Z,52.20
2023-02-22T14:57:53.756Z,52.20
2023-02-22T15:00:31.272Z,52.10
2023-02-22T15:03:02.004Z,52.20
2023-02-22T15:05:38.641Z,52.20
2023-02-22T15:08:10.068Z,52.20
2023-02-22T15:10:46.952Z,52.20
2023-02-22T15:13:20.321Z,52.20
2023-02-22T15:15:51.250Z,52.10
2023-02-22T15:18:25.120Z,52.10
2023-02-22T15:20:58.358Z,52.10
2023-02-22T15:23:33.442Z,52.10
2023-02-22T15:26:04.830Z,52.10
2023-02-22T15:28:36.738Z,52.10
2023-02-22T15:31:17.985Z,52.10
2023-02-22T15:33:47.596Z,52.10
2023-02-22T15:36:17.992Z,52.10
2023-02-22T15:38:52.653Z,52.10
2023-02-22T15:41:29.076Z,52.10
2023-02-22T15:44:14.135Z,52.10
2023-02-22T15:46:51.180Z,52.10
2023-02-22T15:49:23.615Z,52.10
2023-02-22T15:52:05.589Z,52.10
2023-02-22T15:54:44.025Z,52.10
2023-02-22T15:57:19.167Z,52.00
2023-02-22T15:59:53.288Z,52.00
2023-02-22T16:02:39.735Z,51.90
2023-02-22T16:05:13.113Z,51.90
2023-02-22T16:07:46.296Z,51.90
2023-02-22T16:10:28.721Z,51.90
2023-02-22T16:13:19.098Z,51.90
2023-02-22T16:16:02.115Z,51.90
2023-02-22T16:18:34.530Z,51.90
2023-02-22T16:21:07.689Z,51.90
2023-02-22T16:23:47.468Z,51.90
2023-02-22T16:26:24.612Z,51.90
2023-02-22T16:28:56.672Z,51.90
2023-02-22T16:31:27.977Z,51.90
2023-02-22T16:33:57.409Z,52.00
2023-02-22T16:36:39.677Z,52.10
2023-02-22T16:39:10.348Z,52.10
2023-02-22T16:41:39.730Z,51.90
2023-02-22T16:44:13.099Z,52.10
2023-02-22T16:46:43.218Z,51.00
2023-02-22T16:49:13.377Z,50.80
2023-02-22T16:51:46.902Z,50.60
2023-02-22T16:54:20.808Z,50.80
2023-02-22T16:56:50.102Z,50.80
2023-02-22T16:59:20.920Z,51.20
2023-02-22T17:01:50.524Z,51.40
2023-02-22T17:04:22.392Z,51.10
2023-02-22T17:06:52.018Z,50.90
2023-02-22T17:09:21.433Z,50.70
2023-02-22T17:11:52.936Z,50.60
2023-02-22T17:14:28.824Z,50.50
2023-02-22T17:17:01.050Z,50.40
2023-02-22T17:19:30.469Z,50.50
2023-02-22T17:22:01.250Z,51.00
2023-02-22T17:24:30.512Z,51.00
2023-02-22T17:26:59.933Z,50.90
2023-02-22T17:29:30.901Z,50.30
2023-02-22T17:32:00.367Z,50.00
2023-02-22T17:34:29.789Z,49.70
2023-02-22T17:36:59.188Z,49.60
2023-02-22T17:39:28.723Z,49.60
2023-02-22T17:41:58.003Z,49.60
2023-02-22T17:44:27.754Z,49.50
2023-02-22T17:46:58.445Z,49.70
2023-02-22T17:49:27.863Z,49.90
2023-02-22T17:51:57.250Z,50.50
2023-02-22T17:54:27.235Z,50.70
2023-02-22T17:56:58.050Z,50.80
2023-02-22T17:59:28.078Z,50.70
2023-02-22T18:01:58.842Z,50.70
2023-02-22T18:04:28.226Z,50.70
2023-02-22T18:06:57.603Z,50.70
2023-02-22T18:09:27.056Z,50.60
2023-02-22T18:11:56.321Z,50.60
2023-02-22T18:14:25.738Z,50.60
2023-02-22T18:16:54.994Z,50.50
2023-02-22T18:19:25.737Z,50.40
2023-02-22T18:21:54.982Z,50.40
2023-02-22T18:24:24.266Z,50.40
2023-02-22T18:26:53.694Z,50.30
2023-02-22T18:29:23.001Z,50.30
2023-02-22T18:31:54.633Z,50.30
2023-02-22T18:34:25.919Z,50.50
2023-02-22T18:36:55.410Z,51.00
2023-02-22T18:39:24.702Z,51.70
2023-02-22T18:41:54.038Z,52.20
2023-02-22T18:44:23.411Z,52.10
2023-02-22T18:46:53.716Z,52.10
2023-02-22T18:49:26.389Z,51.90
2023-02-22T18:51:55.764Z,51.80
2023-02-22T18:54:25.086Z,51.90
2023-02-22T18:56:54.764Z,52.20
2023-02-22T18:59:24.146Z,52.10
2023-02-22T19:01:53.519Z,52.00
2023-02-22T19:04:25.321Z,52.10
2023-02-22T19:06:57.678Z,52.10
2023-02-22T19:09:27.625Z,52.20
2023-02-22T19:11:56.924Z,52.10
2023-02-22T19:14:26.306Z,52.20
2023-02-22T19:16:57.207Z,52.30
2023-02-22T19:19:27.969Z,52.20
2023-02-22T19:21:57.685Z,52.20
2023-02-22T19:24:27.080Z,52.20
2023-02-22T19:27:00.038Z,52.20
2023-02-22T19:29:31.310Z,52.20
2023-02-22T19:32:01.093Z,52.10
2023-02-22T19:34:35.512Z,52.10
2023-02-22T19:37:08.773Z,52.10
2023-02-22T19:39:38.887Z,52.10
2023-02-22T19:42:09.920Z,52.60
2023-02-22T19:44:39.616Z,52.70
2023-02-22T19:47:10.368Z,52.60
2023-02-22T19:49:42.525Z,52.60
2023-02-22T19:52:13.422Z,52.60
2023-02-22T19:54:42.825Z,52.70
2023-02-22T19:57:13.478Z,52.70
2023-02-22T19:59:42.862Z,52.70
2023-02-22T20:02:13.213Z,52.70
2023-02-22T20:04:44.149Z,52.60
2023-02-22T20:07:13.809Z,52.60
2023-02-22T20:09:43.675Z,52.70
2023-02-22T20:12:13.179Z,52.70
2023-02-22T20:14:43.124Z,52.60
2023-02-22T20:17:13.538Z,52.60
2023-02-22T20:19:44.586Z,52.70
2023-02-22T20:22:14.407Z,52.80
2023-02-22T20:24:43.977Z,52.70
2023-02-22T20:27:13.636Z,52.80
2023-02-22T20:29:43.403Z,52.90
2023-02-22T20:32:15.681Z,53.10
2023-02-22T20:34:50.593Z,53.20
2023-02-22T20:37:20.332Z,53.30
2023-02-22T20:39:51.686Z,53.20
2023-02-22T20:42:21.411Z,53.10
2023-02-22T20:44:52.117Z,53.10
2023-02-22T20:47:22.244Z,53.10
2023-02-22T20:49:53.340Z,53.10
2023-02-22T20:52:22.793Z,53.10
2023-02-22T20:54:51.944Z,53.30
2023-02-22T20:57:21.349Z,53.40
2023-02-22T20:59:50.675Z,53.60
2023-02-22T21:02:19.953Z,53.70
2023-02-22T21:04:49.464Z,53.70
2023-02-22T21:07:22.530Z,53.80
2023-02-22T21:09:52.704Z,53.80
2023-02-22T21:12:22.106Z,53.80
2023-02-22T21:14:51.401Z,53.80
2023-02-22T21:17:31.282Z,53.80
2023-02-22T21:20:00.636Z,53.80
2023-02-22T21:22:31.718Z,53.80
2023-02-22T21:25:01.077Z,53.80
2023-02-22T21:27:30.397Z,53.80
2023-02-22T21:29:59.665Z,53.80
2023-02-22T21:32:28.858Z,53.90
2023-02-22T21:34:58.132Z,53.80
2023-02-22T21:37:28.075Z,53.80
2023-02-22T21:39:59.212Z,53.80
2023-02-22T21:42:28.470Z,53.80
2023-02-22T21:44:57.758Z,53.80
2023-02-22T21:47:27.777Z,53.70
2023-02-22T21:49:57.074Z,53.70
2023-02-22T21:52:27.602Z,53.70
2023-02-22T21:54:58.487Z,53.60
2023-02-22T21:57:27.776Z,53.60
2023-02-22T21:59:57.174Z,53.60
2023-02-22T22:02:27.005Z,53.60
2023-02-22T22:04:57.220Z,53.50
2023-02-22T22:07:26.484Z,53.50
2023-02-22T22:09:56.799Z,53.60
2023-02-22T22:12:37.534Z,53.60
2023-02-22T22:15:09.020Z,53.50
2023-02-22T22:17:38.388Z,53.50
2023-02-22T22:20:11.616Z,53.50
2023-02-22T22:22:42.640Z,53.80
2023-02-22T22:25:12.874Z,53.90
2023-02-22T22:27:43.558Z,53.90
2023-02-22T22:30:16.681Z,53.90
2023-02-22T22:32:46.061Z,53.90
2023-02-22T22:35:15.804Z,53.90
2023-02-22T22:37:51.411Z,53.80
2023-02-22T22:40:21.025Z,53.80
2023-02-22T22:42:51.754Z,53.80
2023-02-22T22:45:21.444Z,53.90
2023-02-22T22:47:52.412Z,53.60
2023-02-22T22:50:26.562Z,53.60
2023-02-22T22:52:55.957Z,53.60
2023-02-22T22:55:25.359Z,53.50
2023-02-22T22:57:56.014Z,53.50
2023-02-22T23:00:33.654Z,53.50
2023-02-22T23:03:05.594Z,53.50
2023-02-22T23:05:38.577Z,53.50
2023-02-22T23:08:10.911Z,53.50
2023-02-22T23:10:41.905Z,53.50
2023-02-22T23:13:15.801Z,53.40
2023-02-22T23:15:47.921Z,53.40
2023-02-22T23:18:20.551Z,53.40
2023-02-22T23:20:55.302Z,53.50
2023-02-22T23:23:27.810Z,53.40
2023-02-22T23:26:18.073Z,53.40
2023-02-22T23:28:50.075Z,53.40
2023-02-22T23:31:19.636Z,53.40
2023-02-22T23:33:49.578Z,53.40
2023-02-22T23:36:20.555Z,53.40
2023-02-22T23:38:50.554Z,53.40
2023-02-22T23:41:20.309Z,53.40
2023-02-22T23:43:51.936Z,53.40
2023-02-22T23:46:21.310Z,53.50
2023-02-22T23:48:52.694Z,53.50
2023-02-22T23:51:25.792Z,53.40
2023-02-22T23:53:56.890Z,53.50
2023-02-22T23:56:28.099Z,53.50
2023-02-22T23:58:58.812Z,53.50
